createdAt,value
2023-01-28T00:01:45.484Z,5.22
2023-01-28T00:04:17.248Z,4.85
2023-01-28T00:06:47.294Z,5.03
2023-01-28T00:09:14.958Z,5.38
2023-01-28T00:11:42.570Z,4.70
2023-01-28T00:14:11.700Z,5.20
2023-01-28T00:16:39.391Z,4.80
2023-01-28T00:19:07.278Z,4.03
2023-01-28T00:21:36.367Z,3.72
2023-01-28T00:24:07.024Z,3.70
2023-01-28T00:26:34.656Z,3.90
2023-01-28T00:29:02.573Z,3.72
2023-01-28T00:31:30.218Z,3.63
2023-01-28T00:33:58.179Z,3.47
2023-01-28T00:36:26.629Z,2.97
2023-01-28T00:38:55.367Z,3.65
2023-01-28T00:41:25.124Z,3.33
2023-01-28T00:43:53.295Z,3.60
2023-01-28T00:46:21.436Z,3.70
2023-01-28T00:48:49.296Z,3.58
2023-01-28T00:51:18.359Z,3.83
2023-01-28T00:53:45.908Z,4.05
2023-01-28T00:56:14.913Z,4.83
2023-01-28T00:58:43.964Z,4.40
2023-01-28T01:01:12.489Z,4.03
2023-01-28T01:03:40.298Z,4.05
2023-01-28T01:06:09.277Z,4.07
2023-01-28T01:08:39.946Z,4.57
2023-01-28T01:11:08.128Z,4.80
2023-01-28T01:13:36.135Z,4.32
2023-01-28T01:16:06.689Z,4.15
2023-01-28T01:18:34.896Z,5.03
2023-01-28T01:21:02.953Z,4.53
2023-01-28T01:23:31.716Z,4.53
2023-01-28T01:25:59.939Z,4.13
2023-01-28T01:28:27.654Z,4.78
2023-01-28T01:31:00.112Z,4.90
2023-01-28T01:33:29.269Z,4.27
2023-01-28T01:35:56.921Z,4.18
2023-01-28T01:38:29.842Z,7.07
2023-01-28T01:40:59.011Z,11.77
2023-01-28T01:43:27.568Z,9.40
2023-01-28T01:45:57.746Z,13.23
2023-01-28T01:48:31.097Z,13.48
2023-01-28T01:51:02.733Z,15.70
2023-01-28T01:53:30.793Z,15.00
2023-01-28T01:56:00.326Z,12.85
2023-01-28T01:58:30.737Z,11.23
2023-01-28T02:00:59.479Z,9.32
2023-01-28T02:03:30.770Z,10.43
2023-01-28T02:05:58.344Z,8.98
2023-01-28T02:08:27.957Z,10.38
2023-01-28T02:10:56.710Z,12.27
2023-01-28T02:13:26.879Z,14.18
2023-01-28T02:15:55.019Z,15.57
2023-01-28T02:18:22.908Z,14.13
2023-01-28T02:21:00.465Z,8.88
2023-01-28T02:23:37.061Z,7.87
2023-01-28T02:26:23.401Z,8.10
2023-01-28T02:28:54.304Z,7.78
2023-01-28T02:31:25.930Z,7.82
2023-01-28T02:33:57.505Z,7.78
2023-01-28T02:36:28.377Z,8.60
2023-01-28T02:38:57.997Z,6.57
2023-01-28T02:41:32.069Z,6.90
2023-01-28T02:44:02.992Z,6.80
2023-01-28T02:46:54.520Z,7.05
2023-01-28T02:49:28.490Z,6.23
2023-01-28T02:52:07.050Z,6.28
2023-01-28T02:54:37.279Z,6.75
2023-01-28T02:57:10.431Z,6.78
2023-01-28T02:59:43.445Z,6.60
2023-01-28T03:02:13.898Z,6.77
2023-01-28T03:04:45.619Z,7.43
2023-01-28T03:07:18.023Z,7.07
2023-01-28T03:09:46.898Z,5.95
2023-01-28T03:12:34.936Z,5.55
2023-01-28T03:15:22.628Z,5.07
2023-01-28T03:18:09.699Z,5.28
2023-01-28T03:20:58.965Z,5.55
2023-01-28T03:23:47.368Z,6.00
2023-01-28T03:26:33.695Z,6.32
2023-01-28T03:29:27.012Z,5.63
2023-01-28T03:32:14.022Z,4.95
2023-01-28T03:34:59.508Z,5.13
2023-01-28T03:37:31.194Z,4.45
2023-01-28T03:40:02.466Z,4.53
2023-01-28T03:42:31.639Z,5.47
2023-01-28T03:45:01.609Z,5.75
2023-01-28T03:47:34.415Z,6.15
2023-01-28T03:50:02.243Z,5.20
2023-01-28T03:52:31.912Z,6.15
2023-01-28T03:54:59.486Z,6.17
2023-01-28T03:57:28.279Z,6.07
2023-01-28T03:59:55.864Z,6.85
2023-01-28T04:02:23.900Z,6.00
2023-01-28T04:04:53.133Z,6.07
2023-01-28T04:07:20.753Z,6.80
2023-01-28T04:09:48.415Z,6.35
2023-01-28T04:12:16.003Z,6.22
2023-01-28T04:14:44.295Z,6.38
2023-01-28T04:17:11.868Z,6.63
2023-01-28T04:19:40.323Z,6.80
2023-01-28T04:22:12.062Z,6.20
2023-01-28T04:24:39.698Z,6.85
2023-01-28T04:27:07.235Z,6.25
2023-01-28T04:29:34.806Z,6.57
2023-01-28T04:32:02.397Z,6.70
2023-01-28T04:34:29.967Z,6.05
2023-01-28T04:36:57.602Z,6.35
2023-01-28T04:39:26.703Z,6.07
2023-01-28T04:41:55.189Z,6.25
2023-01-28T04:44:26.920Z,6.10
2023-01-28T04:46:54.667Z,6.70
2023-01-28T04:49:22.297Z,6.60
2023-01-28T04:51:49.937Z,6.07
2023-01-28T04:54:17.706Z,6.18
2023-01-28T04:56:46.710Z,6.13
2023-01-28T04:59:14.343Z,6.93
2023-01-28T05:01:41.981Z,5.57
2023-01-28T05:04:09.893Z,5.18
2023-01-28T05:06:37.445Z,5.82
2023-01-28T05:09:05.501Z,6.70
2023-01-28T05:11:33.059Z,6.30
2023-01-28T05:14:02.431Z,6.13
2023-01-28T05:16:32.003Z,6.47
2023-01-28T05:18:59.592Z,6.25
2023-01-28T05:21:27.497Z,6.00
2023-01-28T05:23:55.144Z,6.45
2023-01-28T05:26:22.753Z,6.15
2023-01-28T05:28:51.937Z,6.00
2023-01-28T05:31:20.890Z,5.50
2023-01-28T05:33:48.508Z,5.80
2023-01-28T05:36:16.123Z,5.97
2023-01-28T05:38:48.263Z,5.35
2023-01-28T05:41:15.873Z,5.78
2023-01-28T05:43:43.574Z,6.53
2023-01-28T05:46:11.292Z,5.57
2023-01-28T05:48:40.202Z,5.85
2023-01-28T05:51:07.869Z,5.72
2023-01-28T05:53:35.501Z,5.20
2023-01-28T05:56:03.281Z,5.75
2023-01-28T05:58:32.139Z,5.80
2023-01-28T06:00:59.839Z,5.40
2023-01-28T06:03:27.397Z,6.32
2023-01-28T06:05:56.361Z,6.38
2023-01-28T06:08:23.976Z,6.57
2023-01-28T06:10:54.321Z,6.20
2023-01-28T06:13:21.953Z,5.45
2023-01-28T06:15:50.293Z,5.90
2023-01-28T06:18:17.877Z,6.20
2023-01-28T06:20:45.650Z,6.28
2023-01-28T06:23:14.944Z,5.60
2023-01-28T06:25:42.548Z,5.93
2023-01-28T06:28:10.389Z,5.97
2023-01-28T06:30:43.278Z,6.25
2023-01-28T06:33:10.971Z,5.78
2023-01-28T06:35:38.489Z,5.87
2023-01-28T06:38:06.158Z,6.15
2023-01-28T06:40:35.136Z,5.50
2023-01-28T06:43:02.656Z,6.22
2023-01-28T06:45:30.657Z,6.03
2023-01-28T06:47:58.328Z,5.43
2023-01-28T06:50:30.008Z,5.80
2023-01-28T06:52:57.806Z,6.45
2023-01-28T06:55:25.486Z,6.57
2023-01-28T06:57:54.376Z,5.32
2023-01-28T07:00:22.201Z,6.30
2023-01-28T07:02:49.907Z,5.32
2023-01-28T07:05:17.691Z,6.45
2023-01-28T07:07:46.858Z,6.35
2023-01-28T07:10:14.820Z,6.93
2023-01-28T07:12:44.516Z,5.70
2023-01-28T07:15:15.315Z,6.82
2023-01-28T07:17:44.596Z,5.55
2023-01-28T07:20:14.675Z,6.88
2023-01-28T07:22:43.177Z,6.25
2023-01-28T07:25:11.441Z,6.40
2023-01-28T07:27:38.976Z,6.47
2023-01-28T07:30:07.096Z,6.85
2023-01-28T07:32:36.236Z,6.88
2023-01-28T07:35:03.789Z,6.95
2023-01-28T07:37:31.517Z,7.07
2023-01-28T07:39:59.293Z,7.30
2023-01-28T07:42:26.815Z,6.47
2023-01-28T07:44:55.298Z,6.45
2023-01-28T07:47:23.184Z,7.22
2023-01-28T07:49:52.199Z,6.80
2023-01-28T07:52:19.904Z,7.10
2023-01-28T07:54:47.525Z,7.32
2023-01-28T07:57:15.064Z,6.40
2023-01-28T07:59:43.619Z,7.50
2023-01-28T08:02:12.439Z,7.47
2023-01-28T08:04:40.646Z,7.10
2023-01-28T08:07:09.753Z,6.97
2023-01-28T08:09:37.450Z,6.95
2023-01-28T08:12:05.385Z,6.47
2023-01-28T08:14:34.154Z,6.93
2023-01-28T08:17:02.012Z,6.88
2023-01-28T08:19:29.641Z,7.57
2023-01-28T08:21:57.304Z,6.82
2023-01-28T08:24:26.426Z,7.18
2023-01-28T08:26:54.259Z,6.63
2023-01-28T08:29:22.018Z,6.60
2023-01-28T08:31:49.699Z,7.30
2023-01-28T08:34:17.347Z,7.05
2023-01-28T08:36:45.027Z,7.10
2023-01-28T08:39:12.749Z,6.80
2023-01-28T08:41:41.670Z,7.50
2023-01-28T08:44:09.298Z,6.70
2023-01-28T08:46:36.927Z,6.55
2023-01-28T08:49:04.496Z,7.28
2023-01-28T08:51:32.793Z,6.40
2023-01-28T08:54:00.651Z,6.45
2023-01-28T08:56:30.990Z,7.43
2023-01-28T08:59:00.134Z,7.50
2023-01-28T09:01:29.381Z,6.75
2023-01-28T09:03:57.078Z,6.57
2023-01-28T09:06:25.430Z,6.60
2023-01-28T09:08:53.084Z,6.32
2023-01-28T09:11:20.589Z,5.97
2023-01-28T09:13:48.197Z,7.38
2023-01-28T09:16:17.440Z,7.30
2023-01-28T09:18:45.251Z,6.35
2023-01-28T09:21:13.006Z,6.38
2023-01-28T09:23:40.900Z,6.40
2023-01-28T09:26:09.170Z,7.18
2023-01-28T09:28:38.406Z,6.03
2023-01-28T09:31:08.156Z,6.32
2023-01-28T09:33:37.834Z,6.05
2023-01-28T09:36:07.203Z,6.50
2023-01-28T09:38:36.290Z,5.90
2023-01-28T09:41:04.979Z,6.60
2023-01-28T09:43:41.148Z,6.90
2023-01-28T09:46:11.573Z,6.38
2023-01-28T09:48:42.858Z,6.03
2023-01-28T09:51:11.923Z,6.13
2023-01-28T09:53:43.348Z,6.33
2023-01-28T09:56:14.376Z,6.82
2023-01-28T09:58:43.034Z,7.20
2023-01-28T10:01:21.262Z,6.50
2023-01-28T10:03:54.636Z,6.50
2023-01-28T10:06:25.404Z,7.17
2023-01-28T10:09:07.934Z,7.57
2023-01-28T10:11:43.602Z,7.03
2023-01-28T10:14:14.632Z,6.50
2023-01-28T10:16:44.386Z,6.20
2023-01-28T10:19:17.183Z,6.30
2023-01-28T10:21:48.421Z,6.53
2023-01-28T10:24:18.745Z,6.53
2023-01-28T10:26:46.911Z,7.25
2023-01-28T10:29:16.979Z,5.65
2023-01-28T10:31:48.574Z,6.47
2023-01-28T10:34:19.994Z,6.53
2023-01-28T10:36:48.264Z,7.28
2023-01-28T10:39:16.509Z,6.65
2023-01-28T10:41:56.967Z,6.47
2023-01-28T10:44:30.493Z,6.73
2023-01-28T10:46:59.107Z,6.43
2023-01-28T10:49:28.812Z,6.38
2023-01-28T10:52:01.003Z,6.90
2023-01-28T10:54:29.542Z,7.10
2023-01-28T10:57:00.082Z,6.67
2023-01-28T10:59:28.699Z,6.95
2023-01-28T11:01:57.687Z,7.63
2023-01-28T11:04:26.861Z,7.18
2023-01-28T11:07:00.500Z,7.80
2023-01-28T11:09:31.143Z,6.87
2023-01-28T11:11:58.909Z,7.38
2023-01-28T11:14:27.321Z,6.68
2023-01-28T11:16:55.664Z,5.28
2023-01-28T11:19:30.723Z,6.57
2023-01-28T11:21:59.671Z,7.20
2023-01-28T11:24:28.730Z,7.03
2023-01-28T11:26:57.745Z,5.68
2023-01-28T11:29:27.404Z,7.03
2023-01-28T11:31:55.036Z,6.15
2023-01-28T11:34:26.481Z,6.23
2023-01-28T11:36:54.891Z,6.00
2023-01-28T11:39:26.064Z,5.95
2023-01-28T11:41:54.556Z,6.13
2023-01-28T11:44:23.153Z,5.75
2023-01-28T11:47:02.546Z,5.97
2023-01-28T11:49:37.323Z,5.85
2023-01-28T11:52:11.050Z,5.78
2023-01-28T11:54:45.981Z,5.10
2023-01-28T11:57:24.117Z,4.78
2023-01-28T11:59:59.555Z,5.27
2023-01-28T12:02:38.839Z,5.50
2023-01-28T12:05:20.553Z,5.80
2023-01-28T12:07:55.584Z,6.07
2023-01-28T12:10:28.959Z,6.20
2023-01-28T12:13:05.103Z,6.53
2023-01-28T12:15:41.705Z,5.85
2023-01-28T12:18:16.235Z,6.50
2023-01-28T12:20:48.205Z,6.22
2023-01-28T12:23:26.081Z,6.55
2023-01-28T12:26:01.152Z,6.57
2023-01-28T12:28:36.843Z,5.68
2023-01-28T12:31:14.912Z,5.82
2023-01-28T12:33:50.207Z,5.47
2023-01-28T12:36:25.376Z,6.18
2023-01-28T12:39:02.297Z,5.90
2023-01-28T12:41:33.322Z,5.72
2023-01-28T12:44:02.974Z,5.53
2023-01-28T12:46:36.702Z,5.28
2023-01-28T12:49:05.788Z,5.40
2023-01-28T12:51:35.651Z,5.07
2023-01-28T12:54:07.576Z,5.45
2023-01-28T12:56:39.301Z,6.00
2023-01-28T12:59:11.501Z,6.45
2023-01-28T13:01:41.272Z,5.90
2023-01-28T13:04:10.925Z,5.07
2023-01-28T13:06:42.249Z,5.25
2023-01-28T13:09:15.528Z,6.07
2023-01-28T13:11:44.718Z,5.03
2023-01-28T13:14:13.233Z,5.22
2023-01-28T13:16:40.937Z,5.20
2023-01-28T13:19:10.427Z,4.80
2023-01-28T13:21:48.543Z,5.07
2023-01-28T13:24:24.957Z,6.13
2023-01-28T13:26:55.807Z,5.47
2023-01-28T13:29:30.101Z,5.47
2023-01-28T13:31:59.312Z,5.20
2023-01-28T13:34:37.020Z,5.38
2023-01-28T13:37:13.245Z,4.80
2023-01-28T13:39:47.068Z,4.85
2023-01-28T13:42:26.931Z,5.40
2023-01-28T13:44:54.640Z,5.15
2023-01-28T13:47:28.175Z,3.30
2023-01-28T13:49:57.549Z,3.97
2023-01-28T13:52:27.752Z,4.28
2023-01-28T13:54:57.415Z,4.53
2023-01-28T13:57:43.046Z,4.38
2023-01-28T14:00:15.792Z,4.53
2023-01-28T14:02:58.936Z,4.13
2023-01-28T14:05:36.351Z,3.63
2023-01-28T14:08:18.492Z,3.50
2023-01-28T14:10:52.181Z,3.53
2023-01-28T14:13:33.026Z,4.25
2023-01-28T14:16:09.775Z,3.85
2023-01-28T14:18:39.739Z,4.07
2023-01-28T14:21:12.327Z,4.73
2023-01-28T14:23:45.050Z,3.97
2023-01-28T14:26:18.860Z,4.07
2023-01-28T14:28:50.148Z,4.55
2023-01-28T14:31:22.510Z,4.43
2023-01-28T14:33:50.504Z,5.30
2023-01-28T14:36:18.144Z,4.68
2023-01-28T14:38:49.773Z,4.55
2023-01-28T14:41:22.304Z,4.60
2023-01-28T14:43:50.047Z,5.55
2023-01-28T14:46:23.963Z,4.63
2023-01-28T14:48:56.486Z,4.82
2023-01-28T14:51:37.743Z,5.55
2023-01-28T14:54:18.848Z,5.63
2023-01-28T14:56:52.959Z,5.15
2023-01-28T14:59:21.777Z,3.30
2023-01-28T15:01:56.445Z,5.00
2023-01-28T15:04:24.546Z,4.97
2023-01-28T15:06:52.931Z,5.35
2023-01-28T15:09:22.516Z,5.28
2023-01-28T15:11:52.987Z,5.13
2023-01-28T15:14:23.775Z,5.40
2023-01-28T15:16:53.232Z,5.10
2023-01-28T15:19:25.970Z,4.43
2023-01-28T15:21:56.031Z,4.28
2023-01-28T15:24:23.867Z,4.80
2023-01-28T15:26:52.035Z,5.20
2023-01-28T15:29:25.070Z,4.65
2023-01-28T15:31:54.752Z,4.65
2023-01-28T15:34:23.471Z,5.70
2023-01-28T15:36:51.144Z,5.53
2023-01-28T15:39:21.244Z,4.95
2023-01-28T15:41:50.842Z,4.72
2023-01-28T15:44:20.099Z,5.05
2023-01-28T15:46:55.967Z,4.25
2023-01-28T15:49:27.647Z,4.13
2023-01-28T15:51:56.528Z,5.05
2023-01-28T15:54:24.904Z,4.90
2023-01-28T15:56:53.038Z,4.00
2023-01-28T15:59:23.420Z,4.43
2023-01-28T16:01:51.050Z,4.23
2023-01-28T16:04:27.648Z,3.80
2023-01-28T16:06:55.817Z,3.88
2023-01-28T16:09:24.843Z,4.05
2023-01-28T16:11:53.159Z,4.45
2023-01-28T16:14:22.941Z,4.20
2023-01-28T16:16:50.597Z,4.55
2023-01-28T16:19:24.604Z,4.38
2023-01-28T16:21:54.090Z,4.28
2023-01-28T16:24:24.393Z,4.20
2023-01-28T16:27:00.828Z,4.73
2023-01-28T16:29:30.913Z,4.28
2023-01-28T16:31:59.790Z,4.88
2023-01-28T16:34:28.365Z,5.15
2023-01-28T16:36:59.354Z,5.38
2023-01-28T16:39:26.921Z,5.40
2023-01-28T16:41:58.105Z,4.40
2023-01-28T16:44:25.832Z,4.50
2023-01-28T16:46:53.554Z,5.57
2023-01-28T16:49:21.177Z,5.05
2023-01-28T16:51:48.792Z,5.40
2023-01-28T16:54:17.709Z,4.40
2023-01-28T16:56:46.710Z,5.68
2023-01-28T16:59:16.012Z,5.60
2023-01-28T17:01:43.912Z,4.93
2023-01-28T17:04:12.760Z,4.87
2023-01-28T17:06:42.970Z,5.00
2023-01-28T17:09:10.972Z,4.88
2023-01-28T17:11:40.830Z,4.72
2023-01-28T17:14:09.513Z,4.93
2023-01-28T17:16:37.405Z,5.23
2023-01-28T17:19:05.558Z,4.32
2023-01-28T17:21:33.281Z,4.85
2023-01-28T17:24:01.144Z,4.90
2023-01-28T17:26:30.077Z,5.45
2023-01-28T17:28:59.318Z,5.40
2023-01-28T17:31:27.377Z,4.88
2023-01-28T17:33:59.517Z,5.15
2023-01-28T17:36:27.418Z,4.95
2023-01-28T17:38:54.995Z,5.40
2023-01-28T17:41:22.953Z,4.70
2023-01-28T17:43:54.141Z,4.97
2023-01-28T17:46:24.597Z,4.78
2023-01-28T17:48:52.538Z,5.68
2023-01-28T17:51:20.470Z,6.03
2023-01-28T17:53:48.313Z,6.27
2023-01-28T17:56:19.593Z,5.93
2023-01-28T17:58:50.773Z,5.95
2023-01-28T18:01:19.588Z,6.10
2023-01-28T18:03:48.599Z,5.45
2023-01-28T18:06:16.628Z,5.50
2023-01-28T18:08:44.555Z,5.65
2023-01-28T18:11:12.725Z,5.32
2023-01-28T18:13:41.235Z,5.53
2023-01-28T18:16:09.863Z,5.30
2023-01-28T18:18:37.444Z,4.80
2023-01-28T18:21:07.268Z,5.50
2023-01-28T18:23:35.340Z,5.18
2023-01-28T18:26:04.284Z,5.80
2023-01-28T18:28:32.236Z,5.53
2023-01-28T18:31:05.606Z,5.67
2023-01-28T18:33:33.432Z,6.28
2023-01-28T18:36:01.000Z,5.63
2023-01-28T18:38:29.918Z,6.28
2023-01-28T18:40:58.584Z,6.28
2023-01-28T18:43:26.409Z,6.50
2023-01-28T18:45:54.265Z,6.65
2023-01-28T18:48:22.130Z,6.97
2023-01-28T18:50:53.188Z,7.05
2023-01-28T18:53:21.066Z,6.18
2023-01-28T18:55:54.305Z,7.27
2023-01-28T18:58:21.817Z,7.25
2023-01-28T19:00:49.465Z,7.50
2023-01-28T19:03:17.130Z,7.25
2023-01-28T19:05:44.718Z,6.80
2023-01-28T19:08:12.295Z,7.60
2023-01-28T19:10:39.960Z,7.18
2023-01-28T19:13:09.682Z,7.20
2023-01-28T19:15:37.230Z,7.30
2023-01-28T19:18:06.799Z,7.15
2023-01-28T19:20:34.396Z,7.73
2023-01-28T19:23:01.976Z,7.40
2023-01-28T19:25:29.728Z,7.45
2023-01-28T19:27:57.521Z,8.02
2023-01-28T19:30:26.495Z,7.55
2023-01-28T19:32:55.007Z,7.27
2023-01-28T19:35:23.718Z,8.10
2023-01-28T19:37:51.528Z,7.63
2023-01-28T19:40:19.708Z,8.30
2023-01-28T19:42:47.743Z,8.25
2023-01-28T19:45:18.635Z,7.60
2023-01-28T19:47:47.923Z,8.27
2023-01-28T19:50:15.532Z,7.18
2023-01-28T19:52:43.301Z,8.23
2023-01-28T19:55:11.334Z,8.20
2023-01-28T19:57:38.904Z,8.30
2023-01-28T20:00:07.315Z,7.78
2023-01-28T20:02:34.947Z,8.32
2023-01-28T20:05:04.903Z,9.07
2023-01-28T20:07:32.551Z,8.88
2023-01-28T20:10:00.288Z,8.57
2023-01-28T20:12:28.431Z,8.65
2023-01-28T20:14:56.026Z,8.68
2023-01-28T20:17:23.708Z,8.82
2023-01-28T20:19:52.835Z,8.98
2023-01-28T20:22:22.450Z,8.67
2023-01-28T20:24:57.251Z,8.70
2023-01-28T20:27:25.382Z,9.35
2023-01-28T20:29:53.893Z,8.18
2023-01-28T20:32:23.349Z,8.50
2023-01-28T20:34:51.998Z,8.53
2023-01-28T20:37:19.641Z,10.60
2023-01-28T20:39:48.634Z,9.00
2023-01-28T20:42:16.171Z,9.40
2023-01-28T20:44:43.693Z,8.20
2023-01-28T20:47:11.600Z,9.03
2023-01-28T20:49:39.142Z,9.65
2023-01-28T20:52:06.676Z,9.68
2023-01-28T20:54:37.859Z,9.55
2023-01-28T20:57:06.731Z,11.35
2023-01-28T20:59:36.220Z,9.43
2023-01-28T21:02:05.544Z,9.98
2023-01-28T21:04:36.005Z,10.60
2023-01-28T21:07:03.603Z,10.35
2023-01-28T21:09:31.283Z,10.73
2023-01-28T21:11:59.105Z,10.13
2023-01-28T21:14:28.041Z,11.13
2023-01-28T21:16:55.828Z,9.88
2023-01-28T21:19:23.380Z,10.48
2023-01-28T21:21:51.031Z,10.43
2023-01-28T21:24:19.296Z,10.33
2023-01-28T21:26:46.844Z,9.63
2023-01-28T21:29:15.037Z,9.85
2023-01-28T21:31:44.398Z,10.05
2023-01-28T21:34:12.168Z,10.57
2023-01-28T21:36:39.851Z,10.60
2023-01-28T21:39:07.612Z,10.48
2023-01-28T21:41:35.217Z,10.55
2023-01-28T21:44:03.107Z,9.85
2023-01-28T21:46:33.408Z,10.55
2023-01-28T21:49:03.271Z,10.33
2023-01-28T21:51:42.090Z,10.05
2023-01-28T21:54:11.370Z,9.82
2023-01-28T21:56:39.018Z,9.77
2023-01-28T21:59:24.268Z,10.30
2023-01-28T22:01:52.216Z,9.70
2023-01-28T22:04:21.160Z,10.18
2023-01-28T22:06:49.377Z,10.55
2023-01-28T22:09:17.322Z,9.93
2023-01-28T22:11:45.967Z,10.32
2023-01-28T22:14:15.140Z,10.47
2023-01-28T22:16:43.026Z,10.02
2023-01-28T22:19:11.432Z,11.65
2023-01-28T22:21:42.127Z,11.32
2023-01-28T22:24:11.044Z,10.65
2023-01-28T22:26:38.854Z,9.30
2023-01-28T22:29:07.501Z,10.02
2023-01-28T22:31:35.236Z,10.00
2023-01-28T22:34:03.193Z,9.77
2023-01-28T22:36:32.838Z,9.85
2023-01-28T22:39:02.082Z,9.47
2023-01-28T22:41:30.065Z,9.00
2023-01-28T22:43:57.749Z,10.25
2023-01-28T22:46:26.203Z,10.07
2023-01-28T22:48:54.478Z,9.88
2023-01-28T22:51:23.393Z,10.37
2023-01-28T22:53:53.016Z,9.95
2023-01-28T22:56:26.974Z,9.80
2023-01-28T22:58:55.533Z,9.90
2023-01-28T23:01:24.470Z,9.77
2023-01-28T23:03:53.062Z,9.27
2023-01-28T23:06:21.743Z,9.40
2023-01-28T23:08:49.381Z,9.25
2023-01-28T23:11:25.159Z,9.55
2023-01-28T23:14:13.918Z,10.90
2023-01-28T23:16:59.123Z,9.67
2023-01-28T23:19:44.686Z,8.88
2023-01-28T23:22:31.120Z,9.43
2023-01-28T23:24:58.768Z,10.52
2023-01-28T23:27:26.376Z,10.30
2023-01-28T23:29:55.516Z,9.97
2023-01-28T23:32:23.749Z,10.75
2023-01-28T23:34:51.773Z,9.95
2023-01-28T23:37:19.645Z,10.32
2023-01-28T23:39:47.235Z,10.38
2023-01-28T23:42:16.351Z,10.30
2023-01-28T23:44:44.425Z,9.60
2023-01-28T23:47:13.581Z,9.73
2023-01-28T23:49:41.274Z,10.65
2023-01-28T23:52:09.570Z,10.90
2023-01-28T23:54:37.350Z,11.37
2023-01-28T23:57:05.361Z,11.05
2023-01-28T23:59:33.036Z,11.30
